createdAt,value
2019-01-14T00:00:40.005Z,5.06
2019-01-14T00:03:09.071Z,5.03
2019-01-14T00:05:37.687Z,5.03
2019-01-14T00:08:06.649Z,5.01
2019-01-14T00:10:35.640Z,4.96
2019-01-14T00:13:04.344Z,4.92
2019-01-14T00:15:33.525Z,4.87
2019-01-14T00:18:02.528Z,4.78
2019-01-14T00:20:31.232Z,4.77
2019-01-14T00:23:00.097Z,4.75
2019-01-14T00:25:29.090Z,4.72
2019-01-14T00:27:57.809Z,4.73
2019-01-14T00:30:26.431Z,4.72
2019-01-14T00:32:55.033Z,4.68
2019-01-14T00:35:23.743Z,4.65
2019-01-14T00:37:52.343Z,4.61
2019-01-14T00:40:21.617Z,4.59
2019-01-14T00:42:50.339Z,4.60
2019-01-14T00:45:19.038Z,4.53
2019-01-14T00:47:47.882Z,4.54
2019-01-14T00:50:16.972Z,4.52
2019-01-14T00:52:45.651Z,4.46
2019-01-14T00:55:14.663Z,4.42
2019-01-14T00:57:43.655Z,4.43
2019-01-14T01:00:18.789Z,4.51
2019-01-14T01:02:48.085Z,4.41
2019-01-14T01:05:16.687Z,4.42
2019-01-14T01:07:45.874Z,4.39
2019-01-14T01:10:15.786Z,4.37
2019-01-14T01:12:44.933Z,4.36
2019-01-14T01:15:15.618Z,4.36
2019-01-14T01:17:45.001Z,4.38
2019-01-14T01:20:16.873Z,4.37
2019-01-14T01:22:45.819Z,4.30
2019-01-14T01:25:14.587Z,4.32
2019-01-14T01:27:43.338Z,4.34
2019-01-14T01:30:15.113Z,4.36
2019-01-14T01:32:44.106Z,4.33
2019-01-14T01:35:13.674Z,4.33
2019-01-14T01:37:42.381Z,4.27
2019-01-14T01:40:14.465Z,4.31
2019-01-14T01:42:43.665Z,4.20
2019-01-14T01:45:12.567Z,4.21
2019-01-14T01:47:41.553Z,4.26
2019-01-14T01:50:11.945Z,4.22
2019-01-14T01:52:40.568Z,4.27
2019-01-14T01:55:09.554Z,4.23
2019-01-14T01:57:38.235Z,4.28
2019-01-14T02:00:10.117Z,4.37
2019-01-14T02:02:38.723Z,4.43
2019-01-14T02:05:08.234Z,4.45
2019-01-14T02:07:36.832Z,4.46
2019-01-14T02:10:07.610Z,4.50
2019-01-14T02:12:36.513Z,4.52
2019-01-14T02:15:06.015Z,4.46
2019-01-14T02:17:34.900Z,4.41
2019-01-14T02:20:03.967Z,4.41
2019-01-14T02:22:32.891Z,4.40
2019-01-14T02:25:01.499Z,4.37
2019-01-14T02:27:30.123Z,4.30
2019-01-14T02:29:58.743Z,4.29
2019-01-14T02:32:27.633Z,4.21
2019-01-14T02:34:56.527Z,4.23
2019-01-14T02:37:25.136Z,4.21
2019-01-14T02:39:54.104Z,4.12
2019-01-14T02:42:22.815Z,4.05
2019-01-14T02:44:51.775Z,3.93
2019-01-14T02:47:20.391Z,3.98
2019-01-14T02:49:49.017Z,4.03
2019-01-14T02:52:17.945Z,3.94
2019-01-14T02:54:46.834Z,3.92
2019-01-14T02:57:16.139Z,3.94
2019-01-14T02:59:45.030Z,3.96
2019-01-14T03:02:13.918Z,3.93
2019-01-14T03:04:42.914Z,3.92
2019-01-14T03:07:12.725Z,3.90
2019-01-14T03:09:41.408Z,3.91
2019-01-14T03:12:10.043Z,3.88
2019-01-14T03:14:38.666Z,3.87
2019-01-14T03:17:07.333Z,3.79
2019-01-14T03:19:36.571Z,3.73
2019-01-14T03:22:05.562Z,3.74
2019-01-14T03:24:34.864Z,3.68
2019-01-14T03:27:03.487Z,3.75
2019-01-14T03:29:32.095Z,3.72
2019-01-14T03:32:01.129Z,3.75
2019-01-14T03:34:30.122Z,3.75
2019-01-14T03:37:05.278Z,3.77
2019-01-14T03:39:29.644Z,3.77
2019-01-14T03:41:58.840Z,3.79
2019-01-14T03:44:28.059Z,3.92
2019-01-14T03:46:56.662Z,3.89
2019-01-14T03:49:25.520Z,3.86
2019-01-14T03:51:54.423Z,3.89
2019-01-14T03:54:23.090Z,3.85
2019-01-14T03:56:51.697Z,3.86
2019-01-14T03:59:20.682Z,3.80
2019-01-14T04:01:49.680Z,3.79
2019-01-14T04:04:18.565Z,3.84
2019-01-14T04:06:47.446Z,3.80
2019-01-14T04:09:16.311Z,3.76
2019-01-14T04:11:45.546Z,3.81
2019-01-14T04:14:14.461Z,3.84
2019-01-14T04:16:43.060Z,3.85
2019-01-14T04:19:12.015Z,3.78
2019-01-14T04:21:40.658Z,3.82
2019-01-14T04:24:09.553Z,3.77
2019-01-14T04:26:38.483Z,3.71
2019-01-14T04:29:07.119Z,3.67
2019-01-14T04:31:36.072Z,3.58
2019-01-14T04:34:05.060Z,3.55
2019-01-14T04:36:33.759Z,3.48
2019-01-14T04:39:04.682Z,3.37
2019-01-14T04:41:33.283Z,3.37
2019-01-14T04:44:01.905Z,3.31
2019-01-14T04:46:30.498Z,3.25
2019-01-14T04:48:59.421Z,3.20
2019-01-14T04:51:28.828Z,3.17
2019-01-14T04:53:57.719Z,3.17
2019-01-14T04:56:26.603Z,3.13
2019-01-14T04:58:55.496Z,3.17
2019-01-14T05:01:24.219Z,3.20
2019-01-14T05:03:52.835Z,3.21
2019-01-14T05:06:22.988Z,3.14
2019-01-14T05:08:51.833Z,3.14
2019-01-14T05:11:20.771Z,3.13
2019-01-14T05:13:49.380Z,3.02
2019-01-14T05:16:18.065Z,2.93
2019-01-14T05:18:46.664Z,2.92
2019-01-14T05:21:15.619Z,2.91
2019-01-14T05:23:44.506Z,2.92
2019-01-14T05:26:13.148Z,2.89
2019-01-14T05:28:41.810Z,2.90
2019-01-14T05:31:10.672Z,2.94
2019-01-14T05:33:39.668Z,2.93
2019-01-14T05:36:08.283Z,2.96
2019-01-14T05:38:36.882Z,2.95
2019-01-14T05:41:06.236Z,2.97
2019-01-14T05:43:36.338Z,2.93
2019-01-14T05:46:05.208Z,2.89
2019-01-14T05:48:34.148Z,2.91
2019-01-14T05:51:03.137Z,2.90
2019-01-14T05:53:31.727Z,2.92
2019-01-14T05:56:00.927Z,2.86
2019-01-14T05:58:29.817Z,2.80
2019-01-14T06:00:58.708Z,2.83
2019-01-14T06:03:27.432Z,2.79
2019-01-14T06:05:56.701Z,2.81
2019-01-14T06:08:25.640Z,2.75
2019-01-14T06:10:54.580Z,2.71
2019-01-14T06:13:23.228Z,2.68
2019-01-14T06:15:51.959Z,2.68
2019-01-14T06:18:20.555Z,2.74
2019-01-14T06:20:49.833Z,2.72
2019-01-14T06:23:18.521Z,2.68
2019-01-14T06:25:47.410Z,2.65
2019-01-14T06:28:16.300Z,2.63
2019-01-14T06:30:44.927Z,2.57
2019-01-14T06:33:13.881Z,2.53
2019-01-14T06:35:42.511Z,2.50
2019-01-14T06:38:11.559Z,2.49
2019-01-14T06:40:40.181Z,2.50
2019-01-14T06:43:09.441Z,2.46
2019-01-14T06:45:38.437Z,2.47
2019-01-14T06:48:07.140Z,2.58
2019-01-14T06:50:35.811Z,2.60
2019-01-14T06:53:04.900Z,2.53
2019-01-14T06:55:33.515Z,2.51
2019-01-14T06:58:02.205Z,2.53
2019-01-14T07:00:30.943Z,2.50
2019-01-14T07:02:59.958Z,2.50
2019-01-14T07:05:28.643Z,2.51
2019-01-14T07:07:59.784Z,2.48
2019-01-14T07:10:30.093Z,2.47
2019-01-14T07:12:58.878Z,2.50
2019-01-14T07:15:27.586Z,2.43
2019-01-14T07:17:56.215Z,2.43
2019-01-14T07:20:24.878Z,2.38
2019-01-14T07:22:53.762Z,2.34
2019-01-14T07:25:22.481Z,2.32
2019-01-14T07:27:51.439Z,2.32
2019-01-14T07:30:21.456Z,2.33
2019-01-14T07:32:50.188Z,2.31
2019-01-14T07:35:19.047Z,2.33
2019-01-14T07:37:48.140Z,2.31
2019-01-14T07:40:17.424Z,2.33
2019-01-14T07:42:46.050Z,2.35
2019-01-14T07:45:16.036Z,2.35
2019-01-14T07:47:44.919Z,2.33
2019-01-14T07:50:14.770Z,2.35
2019-01-14T07:52:43.824Z,2.33
2019-01-14T07:55:12.533Z,2.34
2019-01-14T07:57:41.206Z,2.40
2019-01-14T08:00:22.258Z,2.38
2019-01-14T08:02:51.082Z,2.39
2019-01-14T08:05:19.957Z,2.40
2019-01-14T08:07:48.662Z,2.48
2019-01-14T08:10:18.252Z,2.47
2019-01-14T08:12:47.243Z,2.48
2019-01-14T08:15:17.980Z,2.62
2019-01-14T08:17:46.670Z,2.79
2019-01-14T08:20:15.355Z,2.86
2019-01-14T08:22:44.054Z,3.00
2019-01-14T08:25:13.399Z,3.08
2019-01-14T08:27:42.843Z,3.05
2019-01-14T08:30:19.623Z,2.94
2019-01-14T08:32:48.715Z,2.85
2019-01-14T08:35:17.930Z,2.61
2019-01-14T08:37:46.659Z,2.56
2019-01-14T08:40:16.371Z,2.69
2019-01-14T08:42:45.734Z,2.83
2019-01-14T08:45:14.811Z,3.08
2019-01-14T08:47:43.602Z,2.76
2019-01-14T08:50:14.673Z,2.65
2019-01-14T08:52:43.738Z,2.80
2019-01-14T08:55:12.505Z,2.83
2019-01-14T08:57:41.174Z,3.18
2019-01-14T09:00:13.531Z,3.33
2019-01-14T09:02:42.139Z,3.46
2019-01-14T09:05:11.263Z,3.34
2019-01-14T09:07:40.154Z,3.04
2019-01-14T09:10:12.323Z,2.95
2019-01-14T09:12:41.625Z,2.88
2019-01-14T09:15:11.695Z,2.77
2019-01-14T09:17:40.581Z,2.82
2019-01-14T09:20:12.909Z,2.69
2019-01-14T09:22:41.660Z,2.63
2019-01-14T09:25:10.263Z,2.66
2019-01-14T09:27:38.890Z,2.71
2019-01-14T09:30:12.309Z,2.66
2019-01-14T09:32:41.250Z,2.78
2019-01-14T09:35:09.945Z,2.83
2019-01-14T09:37:38.550Z,2.84
2019-01-14T09:40:09.691Z,2.83
2019-01-14T09:42:38.563Z,3.16
2019-01-14T09:45:07.217Z,3.25
2019-01-14T09:47:36.144Z,3.00
2019-01-14T09:50:07.398Z,2.83
2019-01-14T09:52:36.586Z,2.78
2019-01-14T09:55:06.994Z,2.82
2019-01-14T09:57:35.616Z,2.74
2019-01-14T10:00:06.696Z,2.66
2019-01-14T10:02:35.618Z,2.70
2019-01-14T10:05:05.178Z,2.64
2019-01-14T10:07:34.134Z,2.78
2019-01-14T10:10:03.142Z,2.82
2019-01-14T10:12:32.099Z,2.61
2019-01-14T10:15:00.988Z,2.66
2019-01-14T10:17:30.820Z,2.66
2019-01-14T10:19:59.710Z,2.51
2019-01-14T10:22:28.604Z,2.42
2019-01-14T10:24:57.905Z,2.36
2019-01-14T10:27:26.517Z,2.45
2019-01-14T10:29:55.112Z,2.52
2019-01-14T10:32:23.966Z,2.39
2019-01-14T10:34:52.852Z,2.72
2019-01-14T10:37:22.854Z,2.92
2019-01-14T10:39:52.173Z,3.04
2019-01-14T10:42:20.793Z,3.50
2019-01-14T10:44:49.467Z,3.81
2019-01-14T10:47:18.440Z,3.46
2019-01-14T10:49:47.079Z,3.30
2019-01-14T10:52:15.659Z,3.88
2019-01-14T10:54:44.264Z,4.05
2019-01-14T10:57:12.875Z,3.64
2019-01-14T10:59:41.767Z,3.17
2019-01-14T11:02:10.463Z,3.27
2019-01-14T11:04:39.438Z,3.27
2019-01-14T11:07:08.341Z,3.21
2019-01-14T11:09:36.973Z,3.02
2019-01-14T11:12:05.889Z,3.58
2019-01-14T11:14:34.572Z,3.62
2019-01-14T11:17:03.199Z,4.05
2019-01-14T11:19:31.813Z,4.18
2019-01-14T11:22:00.764Z,3.89
2019-01-14T11:24:49.833Z,3.74
2019-01-14T11:27:19.546Z,3.65
2019-01-14T11:29:54.858Z,4.08
2019-01-14T11:32:24.107Z,4.00
2019-01-14T11:34:53.081Z,3.49
2019-01-14T11:37:22.045Z,3.33
2019-01-14T11:39:50.658Z,3.59
2019-01-14T11:42:19.620Z,3.44
2019-01-14T11:44:48.215Z,3.16
2019-01-14T11:47:17.121Z,3.18
2019-01-14T11:49:46.013Z,3.29
2019-01-14T11:52:14.606Z,3.15
2019-01-14T11:54:43.306Z,2.98
2019-01-14T11:57:11.981Z,3.27
2019-01-14T11:59:40.947Z,3.13
2019-01-14T12:02:09.637Z,2.91
2019-01-14T12:04:38.549Z,2.68
2019-01-14T12:07:07.168Z,2.68
2019-01-14T12:09:36.428Z,2.62
2019-01-14T12:12:05.238Z,2.70
2019-01-14T12:14:33.845Z,2.80
2019-01-14T12:17:02.454Z,3.27
2019-01-14T12:19:31.507Z,3.73
2019-01-14T12:22:00.474Z,3.59
2019-01-14T12:24:29.466Z,3.93
2019-01-14T12:26:58.071Z,3.48
2019-01-14T12:29:26.762Z,3.74
2019-01-14T12:31:55.360Z,3.78
2019-01-14T12:34:24.316Z,4.08
2019-01-14T12:36:52.938Z,3.76
2019-01-14T12:39:21.900Z,4.02
2019-01-14T12:41:51.156Z,3.93
2019-01-14T12:44:20.047Z,4.31
2019-01-14T12:46:48.666Z,4.08
2019-01-14T12:49:17.560Z,3.76
2019-01-14T12:51:46.207Z,3.67
2019-01-14T12:54:15.141Z,4.54
2019-01-14T12:56:44.375Z,4.62
2019-01-14T12:59:13.331Z,4.76
2019-01-14T13:01:42.012Z,4.70
2019-01-14T13:04:11.220Z,4.31
2019-01-14T13:06:39.887Z,4.29
2019-01-14T13:09:10.138Z,3.64
2019-01-14T13:11:39.028Z,4.27
2019-01-14T13:14:08.022Z,4.59
2019-01-14T13:16:36.975Z,4.43
2019-01-14T13:19:05.657Z,3.73
2019-01-14T13:21:34.299Z,3.92
2019-01-14T13:24:03.289Z,3.85
2019-01-14T13:26:32.262Z,3.68
2019-01-14T13:29:01.164Z,3.66
2019-01-14T13:31:30.061Z,3.49
2019-01-14T13:33:58.698Z,3.60
2019-01-14T13:36:27.309Z,3.30
2019-01-14T13:38:55.928Z,3.58
2019-01-14T13:41:25.106Z,3.95
2019-01-14T13:43:53.699Z,3.66
2019-01-14T13:46:26.313Z,3.43
2019-01-14T13:48:53.421Z,3.44
2019-01-14T13:51:22.307Z,3.33
2019-01-14T13:53:50.915Z,3.16
2019-01-14T13:56:19.542Z,3.12
2019-01-14T13:58:48.777Z,3.06
2019-01-14T14:01:17.384Z,2.97
2019-01-14T14:03:46.276Z,2.89
2019-01-14T14:06:15.556Z,2.88
2019-01-14T14:08:44.447Z,2.87
2019-01-14T14:11:13.154Z,3.09
2019-01-14T14:13:42.124Z,3.07
2019-01-14T14:16:10.743Z,3.35
2019-01-14T14:18:39.355Z,3.50
2019-01-14T14:21:07.959Z,3.30
2019-01-14T14:23:36.583Z,3.20
2019-01-14T14:26:05.288Z,3.10
2019-01-14T14:28:34.243Z,3.02
2019-01-14T14:31:03.232Z,3.18
2019-01-14T14:33:31.835Z,3.12
2019-01-14T14:36:00.712Z,2.94
2019-01-14T14:38:29.705Z,2.89
2019-01-14T14:40:58.569Z,2.89
2019-01-14T14:43:27.484Z,3.07
2019-01-14T14:45:56.123Z,3.14
2019-01-14T14:48:24.771Z,3.07
2019-01-14T14:50:53.723Z,2.93
2019-01-14T14:53:22.638Z,2.92
2019-01-14T14:55:51.544Z,2.88
2019-01-14T14:58:20.831Z,2.89
2019-01-14T15:00:49.540Z,2.80
2019-01-14T15:03:18.151Z,2.62
2019-01-14T15:05:46.847Z,2.62
2019-01-14T15:08:16.089Z,2.59
2019-01-14T15:10:45.087Z,2.57
2019-01-14T15:13:13.987Z,2.55
2019-01-14T15:15:42.865Z,2.62
2019-01-14T15:18:11.760Z,2.60
2019-01-14T15:20:40.381Z,2.60
2019-01-14T15:23:08.982Z,2.55
2019-01-14T15:25:37.921Z,2.59
2019-01-14T15:28:06.912Z,2.56
2019-01-14T15:30:35.914Z,2.44
2019-01-14T15:33:05.010Z,2.58
2019-01-14T15:35:33.701Z,2.57
2019-01-14T15:38:02.586Z,2.56
2019-01-14T15:40:31.486Z,2.59
2019-01-14T15:43:00.181Z,2.58
2019-01-14T15:45:28.893Z,2.65
2019-01-14T15:47:57.963Z,2.59
2019-01-14T15:50:27.439Z,2.68
2019-01-14T15:52:56.344Z,2.72
2019-01-14T15:55:26.691Z,2.65
2019-01-14T15:57:55.774Z,2.63
2019-01-14T16:00:24.899Z,2.62
2019-01-14T16:02:53.901Z,2.75
2019-01-14T16:05:22.581Z,2.74
2019-01-14T16:07:51.518Z,2.68
2019-01-14T16:10:22.164Z,2.74
2019-01-14T16:12:50.789Z,2.78
2019-01-14T16:15:19.741Z,2.78
2019-01-14T16:17:48.717Z,2.74
2019-01-14T16:20:19.571Z,2.72
2019-01-14T16:22:48.346Z,2.87
2019-01-14T16:25:16.969Z,2.84
2019-01-14T16:27:45.629Z,2.84
2019-01-14T16:30:17.001Z,2.85
2019-01-14T16:32:45.593Z,2.83
2019-01-14T16:35:14.383Z,2.81
2019-01-14T16:37:43.024Z,2.83
2019-01-14T16:40:17.913Z,2.80
2019-01-14T16:42:42.668Z,2.90
2019-01-14T16:45:17.802Z,2.90
2019-01-14T16:47:46.513Z,2.94
2019-01-14T16:50:15.975Z,2.92
2019-01-14T16:52:44.994Z,2.93
2019-01-14T16:55:16.341Z,2.86
2019-01-14T16:57:44.965Z,2.90
2019-01-14T17:00:16.668Z,2.87
2019-01-14T17:02:45.675Z,2.88
2019-01-14T17:05:14.927Z,2.88
2019-01-14T17:07:43.970Z,2.86
2019-01-14T17:10:13.912Z,2.76
2019-01-14T17:12:42.883Z,2.81
2019-01-14T17:15:12.278Z,2.77
2019-01-14T17:17:40.955Z,2.81
2019-01-14T17:20:13.529Z,2.86
2019-01-14T17:22:42.738Z,2.82
2019-01-14T17:25:11.413Z,2.81
2019-01-14T17:27:40.426Z,2.78
2019-01-14T17:30:10.828Z,2.74
2019-01-14T17:32:39.929Z,2.81
2019-01-14T17:35:08.942Z,2.77
2019-01-14T17:37:37.678Z,2.78
2019-01-14T17:40:09.221Z,2.79
2019-01-14T17:42:38.172Z,2.72
2019-01-14T17:45:08.282Z,2.74
2019-01-14T17:47:37.069Z,2.77
2019-01-14T17:50:08.282Z,2.74
2019-01-14T17:52:37.223Z,2.75
2019-01-14T17:55:06.640Z,2.80
2019-01-14T17:57:35.329Z,2.83
2019-01-14T18:00:05.253Z,2.78
2019-01-14T18:02:34.217Z,2.75
2019-01-14T18:05:03.313Z,2.78
2019-01-14T18:07:32.322Z,2.73
2019-01-14T18:10:01.244Z,2.79
2019-01-14T18:12:29.864Z,2.76
2019-01-14T18:14:58.652Z,2.74
2019-01-14T18:17:27.570Z,2.68
2019-01-14T18:19:56.561Z,2.62
2019-01-14T18:22:25.160Z,2.54
2019-01-14T18:24:54.457Z,2.55
2019-01-14T18:27:23.089Z,2.61
2019-01-14T18:29:51.706Z,2.68
2019-01-14T18:32:20.612Z,2.66
2019-01-14T18:34:49.607Z,2.69
2019-01-14T18:37:18.492Z,2.75
2019-01-14T18:39:47.692Z,2.71
2019-01-14T18:42:16.580Z,2.79
2019-01-14T18:44:45.199Z,2.77
2019-01-14T18:47:14.164Z,2.85
2019-01-14T18:49:43.050Z,2.91
2019-01-14T18:52:12.045Z,2.85
2019-01-14T18:54:40.687Z,2.76
2019-01-14T18:57:09.634Z,2.80
2019-01-14T18:59:38.625Z,2.80
2019-01-14T19:02:07.288Z,2.78
2019-01-14T19:04:35.898Z,2.88
2019-01-14T19:07:05.041Z,2.93
2019-01-14T19:09:34.302Z,2.94
2019-01-14T19:12:02.988Z,3.01
2019-01-14T19:14:31.601Z,3.05
2019-01-14T19:17:00.337Z,3.10
2019-01-14T19:19:29.236Z,3.18
2019-01-14T19:21:58.126Z,3.20
2019-01-14T19:24:27.019Z,3.18
2019-01-14T19:26:55.923Z,3.19
2019-01-14T19:29:24.804Z,3.20
2019-01-14T19:31:53.814Z,3.31
2019-01-14T19:34:23.196Z,3.29
2019-01-14T19:36:51.783Z,3.44
2019-01-14T19:39:20.510Z,3.57
2019-01-14T19:41:49.122Z,3.61
2019-01-14T19:44:17.724Z,3.42
2019-01-14T19:46:46.628Z,3.33
2019-01-14T19:49:15.261Z,3.25
2019-01-14T19:51:44.363Z,3.25
2019-01-14T19:54:13.306Z,3.26
2019-01-14T19:56:42.032Z,3.29
2019-01-14T19:59:10.985Z,3.22
2019-01-14T20:01:39.734Z,3.21
2019-01-14T20:04:08.768Z,3.18
2019-01-14T20:06:37.661Z,3.24
2019-01-14T20:09:07.595Z,3.21
2019-01-14T20:11:36.601Z,3.21
2019-01-14T20:14:05.289Z,3.27
2019-01-14T20:16:34.247Z,3.24
2019-01-14T20:19:02.873Z,3.22
2019-01-14T20:21:31.808Z,3.18
2019-01-14T20:24:01.469Z,3.17
2019-01-14T20:26:30.328Z,3.11
2019-01-14T20:28:59.099Z,3.07
2019-01-14T20:31:28.106Z,3.10
2019-01-14T20:33:57.101Z,3.18
2019-01-14T20:36:26.230Z,3.20
2019-01-14T20:38:55.192Z,3.17
2019-01-14T20:41:24.139Z,3.20
2019-01-14T20:43:53.002Z,3.21
2019-01-14T20:46:21.636Z,3.28
2019-01-14T20:48:50.246Z,3.29
2019-01-14T20:51:19.135Z,3.30
2019-01-14T20:53:48.553Z,3.32
2019-01-14T20:56:17.669Z,3.27
2019-01-14T20:58:46.453Z,3.29
2019-01-14T21:01:15.083Z,3.29
2019-01-14T21:03:44.105Z,3.33
2019-01-14T21:06:13.098Z,3.34
2019-01-14T21:08:41.991Z,3.25
2019-01-14T21:11:10.943Z,3.31
2019-01-14T21:13:39.876Z,3.31
2019-01-14T21:16:08.969Z,3.38
2019-01-14T21:18:37.965Z,3.32
2019-01-14T21:21:06.650Z,3.34
2019-01-14T21:23:35.338Z,3.34
2019-01-14T21:26:04.536Z,3.32
2019-01-14T21:28:33.163Z,3.34
2019-01-14T21:31:01.788Z,3.30
2019-01-14T21:33:30.722Z,3.31
2019-01-14T21:35:59.345Z,3.25
2019-01-14T21:38:28.584Z,3.25
2019-01-14T21:40:57.205Z,3.34
2019-01-14T21:43:26.157Z,3.32
2019-01-14T21:45:55.482Z,3.34
2019-01-14T21:48:24.354Z,3.37
2019-01-14T21:50:52.975Z,3.35
2019-01-14T21:53:21.604Z,3.33
2019-01-14T21:55:50.745Z,3.35
2019-01-14T21:58:19.344Z,3.34
2019-01-14T22:00:47.987Z,3.40
2019-01-14T22:03:17.289Z,3.35
2019-01-14T22:05:46.308Z,3.36
2019-01-14T22:08:15.091Z,3.49
2019-01-14T22:10:44.078Z,3.43
2019-01-14T22:13:12.684Z,3.46
2019-01-14T22:15:41.634Z,3.51
2019-01-14T22:18:10.626Z,3.50
2019-01-14T22:20:39.309Z,3.52
2019-01-14T22:23:08.304Z,3.56
2019-01-14T22:25:36.980Z,3.65
2019-01-14T22:28:05.737Z,3.67
2019-01-14T22:30:35.161Z,3.67
2019-01-14T22:33:03.975Z,3.70
2019-01-14T22:35:32.676Z,3.68
2019-01-14T22:38:01.711Z,3.69
2019-01-14T22:40:30.849Z,3.73
2019-01-14T22:42:59.499Z,3.77
2019-01-14T22:45:28.170Z,3.72
2019-01-14T22:47:57.111Z,3.75
2019-01-14T22:50:25.725Z,3.73
2019-01-14T22:52:54.422Z,3.73
2019-01-14T22:55:23.030Z,3.71
2019-01-14T22:57:51.646Z,3.72
2019-01-14T23:01:14.067Z,3.70
2019-01-14T23:03:45.148Z,3.69
2019-01-14T23:06:14.444Z,3.67
2019-01-14T23:08:43.637Z,3.68
2019-01-14T23:11:12.541Z,3.64
2019-01-14T23:13:41.426Z,3.63
2019-01-14T23:16:10.141Z,3.64
2019-01-14T23:18:38.742Z,3.62
2019-01-14T23:21:07.361Z,3.59
2019-01-14T23:23:36.008Z,3.62
2019-01-14T23:26:04.681Z,3.64
2019-01-14T23:28:33.292Z,3.68
2019-01-14T23:31:02.272Z,3.68
2019-01-14T23:33:30.853Z,3.76
2019-01-14T23:35:59.492Z,3.74
2019-01-14T23:38:28.400Z,3.75
2019-01-14T23:40:57.385Z,3.80
2019-01-14T23:43:26.276Z,3.76
2019-01-14T23:45:55.000Z,3.73
2019-01-14T23:48:23.858Z,3.71
2019-01-14T23:50:52.465Z,3.70
2019-01-14T23:53:21.090Z,3.68
2019-01-14T23:55:50.018Z,3.67
2019-01-14T23:58:19.322Z,3.70
